Terminal Aerodrome Forecast
Issued by NWS Twin Cities, MN

Home | Current Version | Previous Version | Text Only | Print | Product List | Glossary On
Versions: 1 2 3 4 5 6 7 8 9 10 11 12 13 14 15 16 17 18 19 20 21 22 23 24 25 26 27 28 29 30
000
FTUS43 KMPX 221100
TAFMSP
TAF
KMSP 221136Z 2212/2318 15013KT 4SM -DZ BR OVC006
     FM222200 11013KT 3SM -RASN BR OVC006
     FM230100 08012KT 2SM -SN BR OVC005
     FM230900 03015KT 2SM -SN BR OVC004=

USA.gov is the U.S. government's official web portal to all federal, state and local government web resources and services.